createdAt,value
2022-12-03T00:01:10.124Z,5.00
2022-12-03T00:04:12.777Z,5.32
2022-12-03T00:07:15.508Z,5.22
2022-12-03T00:10:18.218Z,5.50
2022-12-03T00:13:21.648Z,5.50
2022-12-03T00:16:24.309Z,5.70
2022-12-03T00:19:27.819Z,5.80
2022-12-03T00:22:30.448Z,5.88
2022-12-03T00:25:33.256Z,6.50
2022-12-03T00:28:35.955Z,5.73
2022-12-03T00:31:38.819Z,6.20
2022-12-03T00:34:41.595Z,5.55
2022-12-03T00:37:51.144Z,5.65
2022-12-03T00:40:53.751Z,5.67
2022-12-03T00:43:57.943Z,5.77
2022-12-03T00:47:01.593Z,5.85
2022-12-03T00:50:05.801Z,5.38
2022-12-03T00:53:08.563Z,5.55
2022-12-03T00:56:11.446Z,5.53
2022-12-03T00:59:23.046Z,5.57
2022-12-03T01:02:25.763Z,5.60
2022-12-03T01:05:28.443Z,5.68
2022-12-03T01:08:31.328Z,5.30
2022-12-03T01:11:39.947Z,5.53
2022-12-03T01:14:43.957Z,5.50
2022-12-03T01:17:46.582Z,4.97
2022-12-03T01:20:49.244Z,5.32
2022-12-03T01:23:51.981Z,5.13
2022-12-03T01:26:56.138Z,5.03
2022-12-03T01:30:06.980Z,5.47
2022-12-03T01:33:09.623Z,5.00
2022-12-03T01:36:15.365Z,5.25
2022-12-03T01:39:18.816Z,5.50
2022-12-03T01:42:29.142Z,5.10
2022-12-03T01:45:31.846Z,5.20
2022-12-03T01:48:37.113Z,4.88
2022-12-03T01:51:39.876Z,5.03
2022-12-03T01:54:56.173Z,4.95
2022-12-03T01:58:02.075Z,4.83
2022-12-03T02:01:10.390Z,4.80
2022-12-03T02:04:18.413Z,5.05
2022-12-03T02:07:24.664Z,5.40
2022-12-03T02:10:32.955Z,5.68
2022-12-03T02:13:36.459Z,4.97
2022-12-03T02:16:41.225Z,5.40
2022-12-03T02:19:44.351Z,5.07
2022-12-03T02:23:06.678Z,5.60
2022-12-03T02:26:09.584Z,5.13
2022-12-03T02:29:12.293Z,5.33
2022-12-03T02:32:15.177Z,4.83
2022-12-03T02:35:20.380Z,5.60
2022-12-03T02:38:26.151Z,5.13
2022-12-03T02:41:47.980Z,5.38
2022-12-03T02:44:51.609Z,5.60
2022-12-03T02:48:11.767Z,5.03
2022-12-03T02:51:14.867Z,4.63
2022-12-03T02:54:17.641Z,4.25
2022-12-03T02:57:20.909Z,4.90
2022-12-03T03:00:23.946Z,4.97
2022-12-03T03:03:28.789Z,5.37
2022-12-03T03:06:31.552Z,5.28
2022-12-03T03:09:35.294Z,5.07
2022-12-03T03:12:39.529Z,4.90
2022-12-03T03:15:42.791Z,5.50
2022-12-03T03:18:45.771Z,4.70
2022-12-03T03:21:53.581Z,5.10
2022-12-03T03:24:56.206Z,5.30
2022-12-03T03:27:59.094Z,4.90
2022-12-03T03:31:04.086Z,4.40
2022-12-03T03:34:07.149Z,4.93
2022-12-03T03:37:09.779Z,5.05
2022-12-03T03:40:12.749Z,5.45
2022-12-03T03:43:15.594Z,4.90
2022-12-03T03:46:19.416Z,4.90
2022-12-03T03:49:22.602Z,5.20
2022-12-03T03:52:25.530Z,4.93
2022-12-03T03:55:28.700Z,4.47
2022-12-03T03:58:31.355Z,5.13
2022-12-03T04:01:34.362Z,5.10
2022-12-03T04:04:37.041Z,5.30
2022-12-03T04:07:39.707Z,5.40
2022-12-03T04:11:01.180Z,5.00
2022-12-03T04:14:03.875Z,5.05
2022-12-03T04:17:06.537Z,5.13
2022-12-03T04:20:09.913Z,5.77
2022-12-03T04:23:12.605Z,5.50
2022-12-03T04:26:34.360Z,5.75
2022-12-03T04:29:37.260Z,6.10
2022-12-03T04:33:14.958Z,5.90
2022-12-03T04:36:17.595Z,5.60
2022-12-03T04:39:21.539Z,5.75
2022-12-03T04:42:24.172Z,5.53
2022-12-03T04:45:26.828Z,6.45
2022-12-03T04:48:29.454Z,5.53
2022-12-03T04:51:35.329Z,5.90
2022-12-03T04:54:41.839Z,6.13
2022-12-03T04:57:45.036Z,6.78
2022-12-03T05:00:48.440Z,5.80
2022-12-03T05:03:52.698Z,6.37
2022-12-03T05:06:56.045Z,7.07
2022-12-03T05:09:58.701Z,6.82
2022-12-03T05:13:04.074Z,6.60
2022-12-03T05:16:08.688Z,7.10
2022-12-03T05:19:11.359Z,6.33
2022-12-03T05:22:14.128Z,5.83
2022-12-03T05:25:17.972Z,6.45
2022-12-03T05:28:22.323Z,6.25
2022-12-03T05:31:24.972Z,6.88
2022-12-03T05:34:27.770Z,7.00
2022-12-03T05:37:30.318Z,6.77
2022-12-03T05:40:33.075Z,7.18
2022-12-03T05:43:35.786Z,7.32
2022-12-03T05:46:39.568Z,6.50
2022-12-03T05:49:42.417Z,6.80
2022-12-03T05:52:45.094Z,6.83
2022-12-03T05:55:47.764Z,6.72
2022-12-03T05:58:50.445Z,7.22
2022-12-03T06:01:53.066Z,6.68
2022-12-03T06:04:55.996Z,6.80
2022-12-03T06:07:58.980Z,6.90
2022-12-03T06:11:01.847Z,7.07
2022-12-03T06:14:05.122Z,7.53
2022-12-03T06:17:08.537Z,8.00
2022-12-03T06:20:15.457Z,6.80
2022-12-03T06:23:18.172Z,7.30
2022-12-03T06:26:20.748Z,8.30
2022-12-03T06:29:23.613Z,7.10
2022-12-03T06:32:26.253Z,6.82
2022-12-03T06:35:29.201Z,7.03
2022-12-03T06:38:31.793Z,7.63
2022-12-03T06:41:34.485Z,7.68
2022-12-03T06:44:37.030Z,7.25
2022-12-03T06:47:39.814Z,7.35
2022-12-03T06:50:43.011Z,6.83
2022-12-03T06:53:45.674Z,7.57
2022-12-03T06:56:48.333Z,8.15
2022-12-03T06:59:51.279Z,7.30
2022-12-03T07:02:54.236Z,7.43
2022-12-03T07:05:56.930Z,7.30
2022-12-03T07:09:18.108Z,7.67
2022-12-03T07:12:20.813Z,8.15
2022-12-03T07:15:23.472Z,7.30
2022-12-03T07:18:26.624Z,7.25
2022-12-03T07:21:29.958Z,7.03
2022-12-03T07:24:32.868Z,7.83
2022-12-03T07:27:35.648Z,7.50
2022-12-03T07:30:41.072Z,7.78
2022-12-03T07:33:43.805Z,8.25
2022-12-03T07:36:46.504Z,7.77
2022-12-03T07:39:49.908Z,7.60
2022-12-03T07:42:52.836Z,7.00
2022-12-03T07:45:55.514Z,7.45
2022-12-03T07:48:58.206Z,7.93
2022-12-03T07:52:01.242Z,8.40
2022-12-03T07:55:04.158Z,8.30
2022-12-03T07:58:07.314Z,7.72
2022-12-03T08:01:10.609Z,8.32
2022-12-03T08:04:14.903Z,7.18
2022-12-03T08:07:17.531Z,8.33
2022-12-03T08:10:20.117Z,7.97
2022-12-03T08:13:22.823Z,7.97
2022-12-03T08:16:27.290Z,8.00
2022-12-03T08:19:30.383Z,7.63
2022-12-03T08:22:33.012Z,8.33
2022-12-03T08:25:35.647Z,8.40
2022-12-03T08:28:38.328Z,7.97
2022-12-03T08:31:41.901Z,8.10
2022-12-03T08:34:45.068Z,8.13
2022-12-03T08:37:50.388Z,7.97
2022-12-03T08:40:55.727Z,8.00
2022-12-03T08:43:59.019Z,7.82
2022-12-03T08:47:13.077Z,7.85
2022-12-03T08:50:36.097Z,8.20
2022-12-03T08:53:46.085Z,7.50
2022-12-03T08:56:48.746Z,8.03
2022-12-03T09:00:05.032Z,8.18
2022-12-03T09:03:13.038Z,8.50
2022-12-03T09:06:15.813Z,7.22
2022-12-03T09:09:19.510Z,7.53
2022-12-03T09:15:42.238Z,7.80
2022-12-03T09:18:45.021Z,8.10
2022-12-03T09:21:47.612Z,8.27
2022-12-03T09:24:50.634Z,8.30
2022-12-03T09:27:53.576Z,7.57
2022-12-03T09:30:56.215Z,7.65
2022-12-03T09:33:59.719Z,7.75
2022-12-03T09:37:02.376Z,7.25
2022-12-03T09:40:06.841Z,7.23
2022-12-03T09:43:11.016Z,8.27
2022-12-03T09:46:13.942Z,8.05
2022-12-03T09:49:19.586Z,7.68
2022-12-03T09:52:29.165Z,7.28
2022-12-03T09:55:32.164Z,8.30
2022-12-03T09:58:35.170Z,7.70
2022-12-03T10:01:38.004Z,8.00
2022-12-03T10:04:40.717Z,7.53
2022-12-03T10:07:43.472Z,7.60
2022-12-03T10:10:46.723Z,7.50
2022-12-03T10:13:49.930Z,7.20
2022-12-03T10:16:52.599Z,7.22
2022-12-03T10:19:56.496Z,7.03
2022-12-03T10:22:59.267Z,7.88
2022-12-03T10:26:03.776Z,6.37
2022-12-03T10:29:29.841Z,6.53
2022-12-03T10:32:40.603Z,7.40
2022-12-03T10:35:43.336Z,6.85
2022-12-03T10:38:46.557Z,8.00
2022-12-03T10:41:49.319Z,7.63
2022-12-03T10:45:18.198Z,8.10
2022-12-03T10:48:27.436Z,7.03
2022-12-03T10:51:31.049Z,7.13
2022-12-03T10:54:35.995Z,7.38
2022-12-03T10:57:43.759Z,7.33
2022-12-03T11:00:49.497Z,7.50
2022-12-03T11:03:54.033Z,7.07
2022-12-03T11:06:58.062Z,7.30
2022-12-03T11:10:02.842Z,7.07
2022-12-03T11:13:34.473Z,7.00
2022-12-03T11:16:39.998Z,7.17
2022-12-03T11:19:46.330Z,7.10
2022-12-03T11:22:50.011Z,7.03
2022-12-03T11:25:52.736Z,6.82
2022-12-03T11:28:57.618Z,7.37
2022-12-03T11:32:00.326Z,6.27
2022-12-03T11:35:02.979Z,7.75
2022-12-03T11:38:41.532Z,7.13
2022-12-03T11:42:25.815Z,6.95
2022-12-03T11:45:33.295Z,6.83
2022-12-03T11:48:44.627Z,6.60
2022-12-03T11:51:47.475Z,6.53
2022-12-03T11:54:53.531Z,7.03
2022-12-03T11:58:02.112Z,7.10
2022-12-03T12:01:07.577Z,6.57
2022-12-03T12:04:43.083Z,6.97
2022-12-03T12:07:48.400Z,7.38
2022-12-03T12:10:51.323Z,7.25
2022-12-03T12:14:16.071Z,6.93
2022-12-03T12:17:30.404Z,6.70
2022-12-03T12:20:33.049Z,7.43
2022-12-03T12:23:35.687Z,7.50
2022-12-03T12:26:38.312Z,7.00
2022-12-03T12:29:42.953Z,7.25
2022-12-03T12:32:48.236Z,7.17
2022-12-03T12:35:51.348Z,7.30
2022-12-03T12:38:54.026Z,7.10
2022-12-03T12:42:06.646Z,6.95
2022-12-03T12:45:27.045Z,7.30
2022-12-03T12:48:35.040Z,6.70
2022-12-03T12:51:45.535Z,7.50
2022-12-03T12:54:48.197Z,6.38
2022-12-03T12:57:51.500Z,7.13
2022-12-03T13:00:59.698Z,7.28
2022-12-03T13:04:04.121Z,7.60
2022-12-03T13:07:09.327Z,7.07
2022-12-03T13:10:35.511Z,6.97
2022-12-03T13:13:53.351Z,7.13
2022-12-03T13:16:59.236Z,7.15
2022-12-03T13:20:07.679Z,6.53
2022-12-03T13:23:32.508Z,6.47
2022-12-03T13:26:41.397Z,7.05
2022-12-03T13:29:53.185Z,6.90
2022-12-03T13:32:57.681Z,6.53
2022-12-03T13:36:01.561Z,7.07
2022-12-03T13:39:36.247Z,5.90
2022-12-03T13:42:38.928Z,6.55
2022-12-03T13:45:44.084Z,6.65
2022-12-03T13:48:47.622Z,6.90
2022-12-03T13:51:51.284Z,7.70
2022-12-03T13:54:56.517Z,7.53
2022-12-03T13:57:59.187Z,7.90
2022-12-03T14:01:01.825Z,7.13
2022-12-03T14:04:04.836Z,7.93
2022-12-03T14:07:07.527Z,7.37
2022-12-03T14:10:12.359Z,7.73
2022-12-03T14:13:14.917Z,8.63
2022-12-03T14:16:17.593Z,7.03
2022-12-03T14:19:20.276Z,7.45
2022-12-03T14:22:25.432Z,7.53
2022-12-03T14:25:28.098Z,7.30
2022-12-03T14:28:30.727Z,7.47
2022-12-03T14:31:34.079Z,7.15
2022-12-03T14:34:36.819Z,7.47
2022-12-03T14:37:39.482Z,7.80
2022-12-03T14:40:43.538Z,7.30
2022-12-03T14:43:46.217Z,7.40
2022-12-03T14:46:52.699Z,7.22
2022-12-03T14:49:59.057Z,6.78
2022-12-03T14:53:01.844Z,7.53
2022-12-03T14:56:04.596Z,6.73
2022-12-03T14:59:07.477Z,7.18
2022-12-03T15:02:12.258Z,7.35
2022-12-03T15:05:15.000Z,7.32
2022-12-03T15:08:18.745Z,6.97
2022-12-03T15:11:22.434Z,7.00
2022-12-03T15:14:25.044Z,7.28
2022-12-03T15:17:31.734Z,7.10
2022-12-03T15:20:35.794Z,7.07
2022-12-03T15:23:38.464Z,7.37
2022-12-03T15:26:41.048Z,7.40
2022-12-03T15:29:43.866Z,6.60
2022-12-03T15:32:46.827Z,6.97
2022-12-03T15:35:49.525Z,7.38
2022-12-03T15:38:52.573Z,7.23
2022-12-03T15:41:55.367Z,7.70
2022-12-03T15:44:57.966Z,7.55
2022-12-03T15:48:01.095Z,7.30
2022-12-03T15:51:03.754Z,6.97
2022-12-03T15:54:06.938Z,7.17
2022-12-03T15:57:09.628Z,7.33
2022-12-03T16:00:14.055Z,7.20
2022-12-03T16:03:18.066Z,6.95
2022-12-03T16:06:20.904Z,6.97
2022-12-03T16:09:27.429Z,7.83
2022-12-03T16:12:30.733Z,7.07
2022-12-03T16:15:35.401Z,7.38
2022-12-03T16:18:38.138Z,7.13
2022-12-03T16:21:42.710Z,6.45
2022-12-03T16:24:45.886Z,7.27
2022-12-03T16:27:49.028Z,8.60
2022-12-03T16:30:51.852Z,7.93
2022-12-03T16:33:55.276Z,7.13
2022-12-03T16:36:57.967Z,7.13
2022-12-03T16:40:01.909Z,7.90
2022-12-03T16:43:05.100Z,8.00
2022-12-03T16:46:14.708Z,7.63
2022-12-03T16:49:17.496Z,7.50
2022-12-03T16:52:20.100Z,8.60
2022-12-03T16:55:23.121Z,7.97
2022-12-03T16:58:26.476Z,8.97
2022-12-03T17:01:29.654Z,9.02
2022-12-03T17:04:32.650Z,8.93
2022-12-03T17:07:35.426Z,8.88
2022-12-03T17:10:38.795Z,8.63
2022-12-03T17:13:41.527Z,8.50
2022-12-03T17:16:44.148Z,8.75
2022-12-03T17:19:47.260Z,8.95
2022-12-03T17:22:49.934Z,9.32
2022-12-03T17:25:52.578Z,8.03
2022-12-03T17:28:55.536Z,9.33
2022-12-03T17:31:58.361Z,8.90
2022-12-03T17:35:01.041Z,8.68
2022-12-03T17:38:05.220Z,8.73
2022-12-03T17:41:07.976Z,9.00
2022-12-03T17:44:15.045Z,8.87
2022-12-03T17:47:21.127Z,8.07
2022-12-03T17:50:23.953Z,8.52
2022-12-03T17:53:26.918Z,9.07
2022-12-03T17:56:29.672Z,8.53
2022-12-03T17:59:32.299Z,8.93
2022-12-03T18:02:35.023Z,8.90
2022-12-03T18:05:37.682Z,7.85
2022-12-03T18:08:40.359Z,8.30
2022-12-03T18:11:44.046Z,9.20
2022-12-03T18:14:46.795Z,7.47
2022-12-03T18:17:49.459Z,8.68
2022-12-03T18:20:53.766Z,8.40
2022-12-03T18:23:59.372Z,8.70
2022-12-03T18:27:01.982Z,8.10
2022-12-03T18:30:05.297Z,8.77
2022-12-03T18:33:09.658Z,8.88
2022-12-03T18:36:22.922Z,8.85
2022-12-03T18:39:33.613Z,8.77
2022-12-03T18:42:36.439Z,7.60
2022-12-03T18:45:49.300Z,8.77
2022-12-03T18:48:52.168Z,8.60
2022-12-03T18:51:59.587Z,9.15
2022-12-03T18:55:04.348Z,9.15
2022-12-03T18:58:07.692Z,8.43
2022-12-03T19:01:16.377Z,8.43
2022-12-03T19:04:19.565Z,8.25
2022-12-03T19:07:22.861Z,8.07
2022-12-03T19:10:26.683Z,9.02
2022-12-03T19:13:29.926Z,8.47
2022-12-03T19:16:33.012Z,8.60
2022-12-03T19:19:36.518Z,8.85
2022-12-03T19:22:39.899Z,8.93
2022-12-03T19:25:43.172Z,8.82
2022-12-03T19:28:46.351Z,8.03
2022-12-03T19:31:50.612Z,8.27
2022-12-03T19:34:53.812Z,7.78
2022-12-03T19:37:57.061Z,8.45
2022-12-03T19:41:06.973Z,8.40
2022-12-03T19:44:13.601Z,8.73
2022-12-03T19:47:16.722Z,8.97
2022-12-03T19:50:23.366Z,8.68
2022-12-03T19:53:27.847Z,8.88
2022-12-03T19:56:31.174Z,8.40
2022-12-03T19:59:34.610Z,8.57
2022-12-03T20:02:38.127Z,9.10
2022-12-03T20:05:41.392Z,8.43
2022-12-03T20:08:44.878Z,8.68
2022-12-03T20:11:53.809Z,9.45
2022-12-03T20:14:56.897Z,8.00
2022-12-03T20:18:00.100Z,8.33
2022-12-03T20:21:03.538Z,9.60
2022-12-03T20:24:08.054Z,8.27
2022-12-03T20:27:11.156Z,8.35
2022-12-03T20:30:14.318Z,8.70
2022-12-03T20:33:18.464Z,8.93
2022-12-03T20:36:23.262Z,8.52
2022-12-03T20:39:25.866Z,8.50
2022-12-03T20:42:29.090Z,8.02
2022-12-03T20:45:32.175Z,8.37
2022-12-03T20:48:35.800Z,8.93
2022-12-03T20:51:39.254Z,7.70
2022-12-03T20:54:42.341Z,8.38
2022-12-03T20:57:45.301Z,8.32
2022-12-03T21:00:48.844Z,8.20
2022-12-03T21:03:53.628Z,7.90
2022-12-03T21:06:56.709Z,7.70
2022-12-03T21:09:59.483Z,8.85
2022-12-03T21:13:03.625Z,7.93
2022-12-03T21:16:08.376Z,8.50
2022-12-03T21:19:16.580Z,7.67
2022-12-03T21:22:19.396Z,8.25
2022-12-03T21:25:22.235Z,7.88
2022-12-03T21:28:25.210Z,9.00
2022-12-03T21:31:28.163Z,8.47
2022-12-03T21:34:36.085Z,7.97
2022-12-03T21:37:39.397Z,8.02
2022-12-03T21:40:42.941Z,7.78
2022-12-03T21:43:46.128Z,8.20
2022-12-03T21:47:09.743Z,8.77
2022-12-03T21:50:12.055Z,8.93
2022-12-03T21:53:15.390Z,8.80
2022-12-03T21:56:19.665Z,8.02
2022-12-03T21:59:22.385Z,8.15
2022-12-03T22:02:25.146Z,8.03
2022-12-03T22:05:28.005Z,8.00
2022-12-03T22:08:30.634Z,7.75
2022-12-03T22:11:33.411Z,8.25
2022-12-03T22:14:39.019Z,8.48
2022-12-03T22:17:42.755Z,8.60
2022-12-03T22:20:45.483Z,8.10
2022-12-03T22:23:48.331Z,7.47
2022-12-03T22:26:52.298Z,7.82
2022-12-03T22:29:55.155Z,7.85
2022-12-03T22:32:58.056Z,7.57
2022-12-03T22:36:03.629Z,8.17
2022-12-03T22:39:06.332Z,8.13
2022-12-03T22:42:08.930Z,7.45
2022-12-03T22:45:11.583Z,8.43
2022-12-03T22:48:14.846Z,7.13
2022-12-03T22:51:21.051Z,7.33
2022-12-03T22:54:24.878Z,8.95
2022-12-03T22:57:27.573Z,7.43
2022-12-03T23:00:35.692Z,7.53
2022-12-03T23:03:38.437Z,7.50
2022-12-03T23:06:41.155Z,8.17
2022-12-03T23:09:49.224Z,7.18
2022-12-03T23:12:52.289Z,8.13
2022-12-03T23:15:55.061Z,7.93
2022-12-03T23:19:02.059Z,7.27
2022-12-03T23:22:04.772Z,7.20
2022-12-03T23:25:08.060Z,6.93
2022-12-03T23:28:11.016Z,6.65
2022-12-03T23:31:20.820Z,7.32
2022-12-03T23:34:23.658Z,7.23
2022-12-03T23:37:26.409Z,6.97
2022-12-03T23:40:29.180Z,7.55
2022-12-03T23:43:31.818Z,7.55
2022-12-03T23:46:34.616Z,6.88
2022-12-03T23:49:37.433Z,7.13
2022-12-03T23:52:40.554Z,7.30
2022-12-03T23:55:43.125Z,7.60
2022-12-03T23:58:46.258Z,7.80
